Time;durP1;ratioP1;P1;durP2;ratioP2;P2;SDS_P1;SDS_P2;PMS_P1;PMS_P2;Temp;Humidity;BMP_temperature;BMP_pressure;BME280_temperature;BME280_humidity;BME280_pressure;Samples;Min_cycle;Max_cycle;Signal;HPM_P1;HPM_P2
2022/12/09 00:00:31;;;;;;;24.00;14.63;;;1.50;99.90;;;;;;5091327;28;20243;-70
2022/12/09 00:02:58;;;;;;;22.57;14.87;;;1.50;99.90;;;;;;5091966;28;20216;-70
2022/12/09 00:05:25;;;;;;;23.87;14.33;;;1.40;99.90;;;;;;5090612;28;20303;-71
2022/12/09 00:07:52;;;;;;;24.53;15.57;;;1.40;99.90;;;;;;5097646;28;20295;-68
2022/12/09 00:10:19;;;;;;;22.83;14.50;;;1.40;99.90;;;;;;5099335;28;20246;-70
2022/12/09 00:12:46;;;;;;;23.33;15.00;;;1.40;99.90;;;;;;5093161;28;20282;-70
2022/12/09 00:15:14;;;;;;;23.67;15.17;;;1.50;99.90;;;;;;5099911;28;20241;-72
2022/12/09 00:17:41;;;;;;;24.57;13.97;;;1.40;99.90;;;;;;5086551;28;20209;-70
2022/12/09 00:20:09;;;;;;;22.97;14.73;;;1.40;99.90;;;;;;5080028;28;20297;-70
2022/12/09 00:22:36;;;;;;;22.33;14.97;;;1.40;99.90;;;;;;5101579;28;20635;-72
2022/12/09 00:25:03;;;;;;;24.40;15.90;;;1.40;99.90;;;;;;5099181;28;20224;-73
2022/12/09 00:27:30;;;;;;;24.80;15.73;;;1.40;99.90;;;;;;5096995;28;20211;-73
2022/12/09 00:29:57;;;;;;;23.17;14.90;;;1.40;99.90;;;;;;5090843;28;20652;-72
2022/12/09 00:32:25;;;;;;;23.57;15.13;;;1.30;99.90;;;;;;5091379;28;20295;-72
2022/12/09 00:34:52;;;;;;;21.20;14.40;;;1.30;99.90;;;;;;5109302;28;20687;-73
2022/12/09 00:37:19;;;;;;;23.00;15.40;;;1.30;99.90;;;;;;5084573;28;20215;-72
2022/12/09 00:39:46;;;;;;;22.83;14.43;;;1.30;99.90;;;;;;5107004;28;20197;-72
2022/12/09 00:42:13;;;;;;;25.27;14.80;;;1.30;99.90;;;;;;5099453;28;20204;-71
2022/12/09 00:44:40;;;;;;;24.80;15.00;;;1.30;99.90;;;;;;5093871;28;20348;-73
2022/12/09 00:47:07;;;;;;;25.07;14.87;;;1.30;99.90;;;;;;5106280;28;20331;-72
2022/12/09 00:49:35;;;;;;;28.93;16.17;;;1.30;99.90;;;;;;5110284;28;20211;-73
2022/12/09 00:52:02;;;;;;;25.00;15.10;;;1.30;99.90;;;;;;5103663;28;20446;-72
2022/12/09 00:54:29;;;;;;;22.70;14.90;;;1.30;99.90;;;;;;5093216;28;20200;-72
2022/12/09 00:56:56;;;;;;;22.43;14.30;;;1.30;99.90;;;;;;5095791;28;20219;-72
2022/12/09 00:59:24;;;;;;;23.53;14.80;;;1.30;99.90;;;;;;5098110;28;20711;-73
2022/12/09 01:01:50;;;;;;;23.57;14.83;;;1.40;99.90;;;;;;5094693;28;20204;-71
2022/12/09 01:04:17;;;;;;;21.77;13.87;;;1.30;99.90;;;;;;5093048;28;20228;-72
2022/12/09 01:06:46;;;;;;;22.33;14.87;;;1.40;99.90;;;;;;5095529;28;20296;-70
2022/12/09 01:09:13;;;;;;;21.90;14.70;;;1.40;99.90;;;;;;5091870;28;20222;-71
2022/12/09 01:11:39;;;;;;;23.77;15.47;;;1.30;99.90;;;;;;5088729;28;20289;-71
2022/12/09 01:14:06;;;;;;;22.97;14.00;;;1.30;99.90;;;;;;5085585;28;20291;-72
2022/12/09 01:16:34;;;;;;;22.00;14.30;;;1.30;99.90;;;;;;5091924;28;20221;-72
2022/12/09 01:19:03;;;;;;;25.77;15.43;;;1.40;99.90;;;;;;5092566;28;20204;-72
2022/12/09 01:21:31;;;;;;;23.53;15.07;;;1.30;99.90;;;;;;5101985;28;20208;-71
2022/12/09 01:23:59;;;;;;;26.40;16.50;;;1.30;99.90;;;;;;5101447;28;20227;-72
2022/12/09 01:26:26;;;;;;;25.03;15.40;;;1.30;99.90;;;;;;5096274;28;20649;-71
2022/12/09 01:28:54;;;;;;;24.00;15.43;;;1.30;99.90;;;;;;5097485;28;20580;-71
2022/12/09 01:31:24;;;;;;;24.00;14.60;;;1.30;99.90;;;;;;5088897;28;20208;-72
2022/12/09 01:33:51;;;;;;;22.77;15.70;;;1.40;99.90;;;;;;5084883;28;20266;-71
2022/12/09 01:36:21;;;;;;;24.23;14.20;;;1.40;99.90;;;;;;5094419;28;20220;-73
2022/12/09 01:38:48;;;;;;;24.07;14.93;;;1.30;99.90;;;;;;5100624;28;20323;-68
2022/12/09 01:41:18;;;;;;;25.37;14.97;;;1.30;99.90;;;;;;5102538;28;20267;-69
2022/12/09 01:43:46;;;;;;;25.07;14.73;;;1.30;99.90;;;;;;5096169;28;20639;-68
2022/12/09 01:46:13;;;;;;;24.53;15.47;;;1.30;99.90;;;;;;5098366;28;20291;-68
2022/12/09 01:48:42;;;;;;;21.83;14.57;;;1.30;99.90;;;;;;5095861;28;20232;-67
2022/12/09 01:51:12;;;;;;;22.00;15.27;;;1.30;99.90;;;;;;5097575;28;20629;-68
2022/12/09 01:53:42;;;;;;;25.17;15.30;;;1.30;99.90;;;;;;5094558;28;20287;-68
2022/12/09 01:56:15;;;;;;;22.77;15.33;;;1.20;99.90;;;;;;5095679;28;20645;-69
2022/12/09 01:58:43;;;;;;;24.47;15.03;;;1.30;99.90;;;;;;5104634;28;20287;-67
2022/12/09 02:01:11;;;;;;;25.73;16.07;;;1.20;99.90;;;;;;5101367;28;20296;-69
2022/12/09 02:03:38;;;;;;;21.70;14.10;;;1.20;99.90;;;;;;5097358;28;20196;-68
2022/12/09 02:06:05;;;;;;;25.67;15.87;;;1.20;99.90;;;;;;5093290;28;20719;-66
2022/12/09 02:08:32;;;;;;;24.47;14.63;;;1.20;99.90;;;;;;5099617;28;20224;-68
2022/12/09 02:11:07;;;;;;;25.30;16.07;;;1.30;99.90;;;;;;5091235;28;20225;-68
2022/12/09 02:13:43;;;;;;;25.87;14.90;;;1.20;99.90;;;;;;5095942;28;20224;-68
2022/12/09 02:16:17;;;;;;;23.20;15.00;;;1.20;99.90;;;;;;5092466;28;20243;-67
2022/12/09 02:18:49;;;;;;;25.33;14.87;;;1.30;99.90;;;;;;5088585;28;20331;-69
2022/12/09 02:21:20;;;;;;;25.43;14.10;;;1.30;99.90;;;;;;5091729;28;20291;-69
2022/12/09 02:23:55;;;;;;;23.97;15.33;;;1.20;99.90;;;;;;5091538;28;20744;-69
2022/12/09 02:26:27;;;;;;;25.90;16.27;;;1.20;99.90;;;;;;5083791;28;20652;-68
2022/12/09 02:29:09;;;;;;;22.80;14.17;;;1.30;99.90;;;;;;5090659;28;20317;-68
2022/12/09 02:32:08;;;;;;;22.77;14.73;;;1.20;99.90;;;;;;5089506;28;20599;-69
2022/12/09 02:34:44;;;;;;;27.57;15.80;;;1.20;99.90;;;;;;5092987;28;20239;-70
2022/12/09 02:37:17;;;;;;;23.53;15.90;;;1.20;99.90;;;;;;5079543;28;20208;-69
2022/12/09 02:39:49;;;;;;;24.60;15.57;;;1.20;99.90;;;;;;5097986;28;20681;-68
2022/12/09 02:42:18;;;;;;;27.10;14.90;;;1.20;99.90;;;;;;5091715;28;20287;-68
2022/12/09 02:44:48;;;;;;;26.53;14.97;;;1.20;99.90;;;;;;5094422;28;20300;-76
2022/12/09 02:47:18;;;;;;;26.03;15.40;;;1.20;99.90;;;;;;5097165;28;20322;-74
2022/12/09 02:49:50;;;;;;;23.17;14.23;;;1.20;99.90;;;;;;5093314;28;20573;-74
2022/12/09 02:52:19;;;;;;;26.70;15.17;;;1.20;99.90;;;;;;5090647;28;20201;-75
2022/12/09 02:54:47;;;;;;;24.27;14.63;;;1.20;99.90;;;;;;5105459;28;20663;-70
2022/12/09 02:57:24;;;;;;;22.80;14.90;;;1.20;99.90;;;;;;5093497;28;20220;-70
2022/12/09 02:59:50;;;;;;;24.70;15.57;;;1.20;99.90;;;;;;5097380;28;20641;-72
2022/12/09 03:02:24;;;;;;;23.20;15.13;;;1.20;99.90;;;;;;5089519;28;20208;-71
2022/12/09 03:05:09;;;;;;;25.67;14.90;;;1.20;99.90;;;;;;5093866;28;20280;-71
2022/12/09 03:07:42;;;;;;;24.53;16.10;;;1.20;99.90;;;;;;5093427;28;20205;-71
2022/12/09 03:10:14;;;;;;;23.93;14.67;;;1.20;99.90;;;;;;5091611;28;20201;-71
2022/12/09 03:12:46;;;;;;;25.53;15.07;;;1.20;99.90;;;;;;5093093;28;20196;-70
2022/12/09 03:15:14;;;;;;;26.83;15.97;;;1.20;99.90;;;;;;5092925;28;20200;-69
2022/12/09 03:17:44;;;;;;;23.67;14.83;;;1.10;99.90;;;;;;5092473;28;20231;-70
2022/12/09 03:20:17;;;;;;;25.60;16.13;;;1.10;99.90;;;;;;5090509;28;20295;-70
2022/12/09 03:22:45;;;;;;;25.57;15.73;;;1.10;99.90;;;;;;5080531;28;20243;-71
2022/12/09 03:25:18;;;;;;;22.63;15.83;;;1.10;99.90;;;;;;5102505;28;20208;-70
2022/12/09 03:27:50;;;;;;;27.63;15.67;;;1.10;99.90;;;;;;5089363;28;20201;-69
2022/12/09 03:30:17;;;;;;;23.47;15.33;;;1.10;99.90;;;;;;5092361;28;20219;-70
2022/12/09 03:32:45;;;;;;;21.77;14.63;;;1.10;99.90;;;;;;5097464;28;20695;-71
2022/12/09 03:35:18;;;;;;;26.07;15.83;;;1.00;99.90;;;;;;5100200;28;20223;-71
2022/12/09 03:37:48;;;;;;;24.70;15.83;;;1.00;99.90;;;;;;5092601;28;20219;-71
2022/12/09 03:40:18;;;;;;;26.13;16.13;;;1.00;99.90;;;;;;5090705;28;20307;-70
2022/12/09 03:42:53;;;;;;;24.67;15.10;;;1.00;99.90;;;;;;5091174;28;20291;-72
2022/12/09 03:45:22;;;;;;;28.00;16.83;;;1.00;99.90;;;;;;5090599;28;20290;-70
2022/12/09 03:47:49;;;;;;;26.20;15.83;;;1.00;99.90;;;;;;5091659;28;20232;-71
2022/12/09 03:50:18;;;;;;;24.87;16.03;;;1.00;99.90;;;;;;5089498;28;20240;-70
2022/12/09 03:52:49;;;;;;;25.77;15.50;;;1.00;99.90;;;;;;5091207;28;20284;-71
2022/12/09 03:55:21;;;;;;;22.90;15.47;;;1.00;99.90;;;;;;5090631;28;20295;-72
2022/12/09 03:57:52;;;;;;;27.90;16.13;;;1.00;99.90;;;;;;5091578;28;20295;-70
2022/12/09 04:00:20;;;;;;;24.77;15.90;;;1.00;99.90;;;;;;5099450;28;20228;-71
2022/12/09 04:02:46;;;;;;;28.70;16.63;;;1.00;99.90;;;;;;5080403;28;20229;-70
2022/12/09 04:05:13;;;;;;;27.13;16.40;;;1.00;99.90;;;;;;5088386;28;20211;-71
2022/12/09 04:07:42;;;;;;;25.10;16.27;;;1.10;99.90;;;;;;5089837;28;20204;-71
2022/12/09 04:10:09;;;;;;;22.70;15.30;;;1.10;99.90;;;;;;5093825;28;20213;-70
2022/12/09 04:12:36;;;;;;;23.73;16.00;;;1.10;99.90;;;;;;5091636;28;20647;-71
2022/12/09 04:15:03;;;;;;;26.40;17.57;;;1.10;99.90;;;;;;5088775;28;20209;-71
2022/12/09 04:17:30;;;;;;;30.43;17.47;;;1.10;99.90;;;;;;5099641;28;20739;-70
2022/12/09 04:19:57;;;;;;;29.13;17.13;;;1.10;99.90;;;;;;5092428;28;20208;-71
2022/12/09 04:22:24;;;;;;;28.07;17.43;;;1.10;99.90;;;;;;5091727;28;20299;-72
2022/12/09 04:24:52;;;;;;;25.50;16.17;;;1.10;99.90;;;;;;5098312;28;20222;-70
2022/12/09 04:27:19;;;;;;;24.17;16.20;;;1.10;99.90;;;;;;5087955;28;20561;-70
2022/12/09 04:29:46;;;;;;;29.90;16.23;;;1.20;99.90;;;;;;5090252;28;20710;-70
2022/12/09 04:32:13;;;;;;;27.93;16.67;;;1.10;99.90;;;;;;5101296;28;20204;-71
2022/12/09 04:34:40;;;;;;;26.83;16.33;;;1.20;99.90;;;;;;5090419;28;20242;-70
2022/12/09 04:37:06;;;;;;;30.13;17.10;;;1.10;99.90;;;;;;5091437;28;20231;-70
2022/12/09 04:39:33;;;;;;;26.70;16.20;;;1.10;99.90;;;;;;5091088;28;20208;-70
2022/12/09 04:42:01;;;;;;;27.13;16.23;;;1.10;99.90;;;;;;5090386;28;20404;-70
2022/12/09 04:44:28;;;;;;;24.90;16.23;;;1.10;99.90;;;;;;5099202;28;20230;-72
2022/12/09 04:46:55;;;;;;;25.13;17.17;;;1.20;99.90;;;;;;5088561;28;20291;-72
2022/12/09 04:49:22;;;;;;;24.97;16.13;;;1.20;99.90;;;;;;5094603;28;20695;-71
2022/12/09 04:51:49;;;;;;;31.07;17.80;;;1.20;99.90;;;;;;5094159;28;20771;-69
2022/12/09 04:54:16;;;;;;;24.27;15.23;;;1.20;99.90;;;;;;5090836;28;20308;-71
2022/12/09 04:56:43;;;;;;;24.93;15.73;;;1.10;99.90;;;;;;5089131;28;20227;-70
2022/12/09 04:59:12;;;;;;;25.83;15.43;;;1.10;99.90;;;;;;5089285;28;20232;-71
2022/12/09 05:01:38;;;;;;;26.43;16.77;;;1.10;99.90;;;;;;5087713;28;20287;-71
2022/12/09 05:04:06;;;;;;;27.03;15.90;;;1.10;99.90;;;;;;5091562;28;20211;-70
2022/12/09 05:06:32;;;;;;;25.33;16.23;;;1.10;99.90;;;;;;5090819;28;20197;-71
2022/12/09 05:09:00;;;;;;;28.63;16.53;;;1.10;99.90;;;;;;5089830;28;20284;-70
2022/12/09 05:11:26;;;;;;;27.07;17.03;;;1.00;99.90;;;;;;5090483;28;20212;-70
2022/12/09 05:13:54;;;;;;;28.37;16.10;;;1.00;99.90;;;;;;5091393;28;20239;-70
2022/12/09 05:16:22;;;;;;;28.93;17.00;;;1.00;99.90;;;;;;5089952;28;20252;-71
2022/12/09 05:18:49;;;;;;;29.37;16.90;;;1.00;99.90;;;;;;5091477;28;20592;-71
2022/12/09 05:21:19;;;;;;;23.40;15.67;;;1.00;99.90;;;;;;5089351;28;20204;-71
2022/12/09 05:23:46;;;;;;;29.03;17.47;;;1.00;99.90;;;;;;5099999;28;20239;-70
2022/12/09 05:26:16;;;;;;;27.30;17.30;;;1.00;99.90;;;;;;5084157;28;20214;-70
2022/12/09 05:28:43;;;;;;;28.50;16.70;;;1.00;99.90;;;;;;5092417;28;20205;-69
2022/12/09 05:31:13;;;;;;;25.67;16.23;;;0.90;99.90;;;;;;5098605;28;20211;-70
2022/12/09 05:33:42;;;;;;;27.30;16.57;;;0.90;99.90;;;;;;5090275;28;20300;-71
2022/12/09 05:36:10;;;;;;;27.77;16.40;;;0.90;99.90;;;;;;5097263;28;20258;-72
2022/12/09 05:38:37;;;;;;;29.30;17.20;;;0.80;99.90;;;;;;5098110;28;20276;-72
2022/12/09 05:41:03;;;;;;;27.70;16.90;;;0.80;99.90;;;;;;5108826;28;20300;-70
2022/12/09 05:43:31;;;;;;;28.03;17.20;;;0.80;99.90;;;;;;5091330;28;20679;-70
2022/12/09 05:45:58;;;;;;;27.83;16.43;;;0.80;99.90;;;;;;5087723;28;20865;-70
2022/12/09 05:48:25;;;;;;;24.90;15.83;;;0.80;99.90;;;;;;5089908;28;20235;-70
2022/12/09 05:51:01;;;;;;;29.77;17.13;;;0.80;99.90;;;;;;5084444;28;20209;-71
2022/12/09 05:53:28;;;;;;;29.77;17.30;;;0.80;99.90;;;;;;5086627;28;20197;-72
2022/12/09 05:55:55;;;;;;;29.07;17.83;;;0.80;99.90;;;;;;5086880;28;20287;-74
2022/12/09 05:58:23;;;;;;;27.50;16.47;;;0.80;99.90;;;;;;5090436;28;20235;-74
2022/12/09 06:00:50;;;;;;;28.67;17.70;;;0.80;99.90;;;;;;5090478;28;20602;-73
2022/12/09 06:03:17;;;;;;;29.07;16.77;;;0.80;99.90;;;;;;5091509;28;20208;-73
2022/12/09 06:05:44;;;;;;;29.07;17.43;;;0.80;99.90;;;;;;5089548;28;20240;-73
2022/12/09 06:08:12;;;;;;;28.97;17.63;;;0.90;99.90;;;;;;5101014;28;20231;-72
2022/12/09 06:10:39;;;;;;;29.27;17.13;;;0.80;99.90;;;;;;5103401;28;20211;-74
2022/12/09 06:13:06;;;;;;;25.13;17.30;;;0.90;99.90;;;;;;5092318;28;20597;-75
2022/12/09 06:15:34;;;;;;;28.20;17.30;;;0.90;99.90;;;;;;5080047;28;20707;-71
2022/12/09 06:18:01;;;;;;;29.30;16.47;;;0.90;99.90;;;;;;5089756;28;20261;-73
2022/12/09 06:20:28;;;;;;;29.00;18.47;;;0.90;99.90;;;;;;5090321;28;20748;-70
2022/12/09 06:22:55;;;;;;;32.50;17.70;;;0.90;99.90;;;;;;5094540;28;20209;-68
2022/12/09 06:25:23;;;;;;;27.27;16.87;;;0.90;99.90;;;;;;5092213;28;20227;-71
2022/12/09 06:27:52;;;;;;;35.75;22.38;;;0.90;99.90;;;;;;5079165;28;20452;-70
2022/12/09 06:30:19;;;;;;;25.90;17.60;;;0.90;99.90;;;;;;5083254;28;20208;-70
2022/12/09 06:32:46;;;;;;;28.27;17.63;;;0.90;99.90;;;;;;5082328;28;20227;-71
2022/12/09 06:35:13;;;;;;;32.47;16.93;;;0.90;99.90;;;;;;5082505;28;20211;-70
2022/12/09 06:37:40;;;;;;;28.70;16.73;;;0.90;99.90;;;;;;5078429;28;20677;-70
2022/12/09 06:40:08;;;;;;;28.57;18.47;;;0.90;99.90;;;;;;5082937;28;20675;-71
2022/12/09 06:42:36;;;;;;;28.03;16.73;;;1.00;99.90;;;;;;5086808;28;20197;-72
2022/12/09 06:45:03;;;;;;;24.30;16.27;;;1.00;99.90;;;;;;5082114;28;20225;-71
2022/12/09 06:47:30;;;;;;;30.27;18.30;;;1.10;99.90;;;;;;5085740;28;20232;-70
2022/12/09 06:50:00;;;;;;;29.20;16.80;;;1.00;99.90;;;;;;5086130;28;20210;-69
2022/12/09 06:52:27;;;;;;;28.47;18.47;;;1.10;99.90;;;;;;5089642;28;20212;-70
2022/12/09 06:54:54;;;;;;;32.30;18.20;;;1.10;99.90;;;;;;5089130;28;20204;-67
2022/12/09 06:57:21;;;;;;;30.63;18.97;;;1.10;99.90;;;;;;5083014;28;20228;-67
2022/12/09 06:59:49;;;;;;;29.13;17.80;;;1.10;99.90;;;;;;5076496;28;20225;-73
2022/12/09 07:02:16;;;;;;;30.70;17.60;;;1.10;99.90;;;;;;5079400;28;20240;-72
2022/12/09 07:04:43;;;;;;;28.43;17.87;;;1.20;99.90;;;;;;5089693;28;20402;-72
2022/12/09 07:07:11;;;;;;;28.50;17.63;;;1.20;99.90;;;;;;5089132;28;20211;-73
2022/12/09 07:09:38;;;;;;;29.13;17.40;;;1.30;99.90;;;;;;5091888;28;20263;-71
2022/12/09 07:12:06;;;;;;;28.17;18.80;;;1.30;99.90;;;;;;5080381;28;20250;-74
2022/12/09 07:14:33;;;;;;;30.27;17.63;;;1.40;99.90;;;;;;5077355;28;20684;-74
2022/12/09 07:17:02;;;;;;;28.67;17.60;;;1.40;99.90;;;;;;5079387;28;20321;-75
2022/12/09 07:19:30;;;;;;;29.37;17.47;;;1.40;99.90;;;;;;5085112;28;20639;-74
2022/12/09 07:21:57;;;;;;;31.57;17.97;;;1.70;99.90;;;;;;5078088;28;20288;-73
2022/12/09 07:24:24;;;;;;;31.27;18.30;;;1.50;99.90;;;;;;5090985;28;20656;-74
2022/12/09 07:26:52;;;;;;;30.70;18.70;;;1.50;99.90;;;;;;5095618;28;20312;-76
2022/12/09 07:29:19;;;;;;;28.67;17.67;;;1.60;99.90;;;;;;5087568;28;20285;-74
2022/12/09 07:31:47;;;;;;;29.77;17.27;;;1.60;99.90;;;;;;5084618;28;20213;-75
2022/12/09 07:34:15;;;;;;;28.87;18.23;;;1.70;99.90;;;;;;5094542;28;20859;-75
2022/12/09 07:36:42;;;;;;;28.03;17.93;;;1.80;99.90;;;;;;5092677;28;20223;-73
2022/12/09 07:39:12;;;;;;;30.47;18.80;;;1.90;99.90;;;;;;5089671;28;20231;-74
2022/12/09 07:41:39;;;;;;;28.83;16.97;;;2.10;99.90;;;;;;5091176;28;20687;-74
2022/12/09 07:44:07;;;;;;;30.40;16.67;;;2.30;99.90;;;;;;5080015;28;20639;-73
2022/12/09 07:46:34;;;;;;;31.47;19.90;;;2.50;99.90;;;;;;5081226;28;20288;-74
2022/12/09 07:49:02;;;;;;;28.13;17.87;;;2.60;99.90;;;;;;5090993;28;20256;-75
2022/12/09 07:51:31;;;;;;;38.13;17.90;;;2.70;99.90;;;;;;5088406;28;20668;-75
2022/12/09 07:53:58;;;;;;;26.53;17.03;;;2.90;99.90;;;;;;5081375;28;20296;-75
2022/12/09 07:56:26;;;;;;;24.47;16.73;;;3.10;99.90;;;;;;5084938;28;20204;-74
2022/12/09 07:58:54;;;;;;;28.63;16.07;;;3.20;99.90;;;;;;5080013;28;20252;-71
2022/12/09 08:01:24;;;;;;;30.03;18.20;;;3.40;99.90;;;;;;5093717;28;20311;-72
2022/12/09 08:03:51;;;;;;;28.10;17.47;;;3.60;99.90;;;;;;5076360;28;20201;-75
2022/12/09 08:06:21;;;;;;;28.00;17.80;;;3.80;99.90;;;;;;5085293;28;20307;-69
2022/12/09 08:08:50;;;;;;;27.93;18.07;;;4.00;99.90;;;;;;5090609;28;20220;-72
2022/12/09 08:11:21;;;;;;;27.83;17.23;;;4.10;99.90;;;;;;5084877;28;20261;-70
2022/12/09 08:13:49;;;;;;;30.10;17.00;;;4.30;99.90;;;;;;5087770;28;20295;-70
2022/12/09 08:16:18;;;;;;;29.23;17.40;;;4.40;99.90;;;;;;5090864;28;20532;-65
2022/12/09 08:18:45;;;;;;;27.10;16.93;;;4.40;99.90;;;;;;5102126;28;20216;-66
2022/12/09 08:21:15;;;;;;;26.17;16.37;;;4.40;99.90;;;;;;5102882;28;20197;-68
2022/12/09 08:23:43;;;;;;;29.53;18.50;;;4.40;99.90;;;;;;5088886;28;20235;-69
2022/12/09 08:26:13;;;;;;;26.63;16.60;;;4.30;99.90;;;;;;5088442;28;20286;-66
2022/12/09 08:28:40;;;;;;;30.70;17.07;;;4.30;99.90;;;;;;5104501;28;20217;-71
2022/12/09 08:31:08;;;;;;;28.67;17.70;;;4.20;99.90;;;;;;5104366;28;20200;-69
2022/12/09 08:33:35;;;;;;;29.00;17.10;;;4.10;99.90;;;;;;5107161;28;20227;-69
2022/12/09 08:36:03;;;;;;;27.43;17.27;;;4.10;99.90;;;;;;5098523;28;20205;-69
2022/12/09 08:38:30;;;;;;;32.50;18.20;;;4.00;99.90;;;;;;5106771;28;20247;-70
2022/12/09 08:40:57;;;;;;;30.30;18.63;;;3.90;99.90;;;;;;5109738;28;20200;-76
2022/12/09 08:43:25;;;;;;;26.37;16.90;;;3.90;99.90;;;;;;5107961;28;20205;-71
2022/12/09 08:45:52;;;;;;;26.70;16.80;;;3.80;99.90;;;;;;5111977;28;20199;-70
2022/12/09 08:48:19;;;;;;;27.20;17.50;;;3.80;99.90;;;;;;5113150;28;20236;-71
2022/12/09 08:50:46;;;;;;;27.17;17.77;;;3.80;99.90;;;;;;5118422;27;20573;-69
2022/12/09 08:53:12;;;;;;;27.97;17.93;;;3.70;99.90;;;;;;5109036;28;20199;-68
2022/12/09 08:55:41;;;;;;;26.97;17.47;;;3.70;99.90;;;;;;5116556;28;20200;-70
2022/12/09 08:58:08;;;;;;;31.50;19.40;;;3.60;99.90;;;;;;5113313;28;20223;-71
2022/12/09 09:00:36;;;;;;;26.20;17.53;;;3.60;99.90;;;;;;5113143;28;20236;-70
2022/12/09 09:03:03;;;;;;;29.83;18.33;;;3.60;99.90;;;;;;5110276;28;20201;-70
2022/12/09 09:05:30;;;;;;;29.10;17.93;;;3.60;99.90;;;;;;5111622;28;20220;-71
2022/12/09 09:07:57;;;;;;;28.87;18.67;;;4.10;99.90;;;;;;5113636;28;20220;-69
2022/12/09 09:10:24;;;;;;;30.57;18.93;;;3.60;99.90;;;;;;5112531;28;20264;-69
2022/12/09 09:12:51;;;;;;;31.90;18.60;;;3.60;99.90;;;;;;5118999;28;20196;-70
2022/12/09 09:15:18;;;;;;;27.07;18.03;;;3.60;99.90;;;;;;5108169;28;20201;-70
2022/12/09 09:17:46;;;;;;;28.50;18.90;;;3.70;99.90;;;;;;5108995;28;20330;-69
2022/12/09 09:20:16;;;;;;;26.67;17.90;;;3.60;99.90;;;;;;5112309;28;20208;-68
2022/12/09 09:22:43;;;;;;;28.93;18.37;;;3.60;99.90;;;;;;5112187;28;20184;-68
2022/12/09 09:25:10;;;;;;;26.53;17.53;;;3.60;99.90;;;;;;5110093;28;20239;-70
2022/12/09 09:27:37;;;;;;;29.67;17.87;;;3.60;99.90;;;;;;5107114;28;20235;-70
2022/12/09 09:30:05;;;;;;;30.60;18.53;;;3.60;99.90;;;;;;5098273;28;20299;-69
2022/12/09 09:32:32;;;;;;;32.90;20.10;;;3.70;99.90;;;;;;5078773;28;20209;-70
2022/12/09 09:35:00;;;;;;;28.87;19.07;;;3.60;99.90;;;;;;5103001;28;20264;-69
2022/12/09 09:37:27;;;;;;;29.83;19.63;;;3.60;99.90;;;;;;5110633;28;20261;-70
2022/12/09 09:39:54;;;;;;;32.13;19.50;;;3.60;99.90;;;;;;5115388;28;20199;-70
2022/12/09 09:42:27;;;;;;;31.37;19.87;;;3.70;99.90;;;;;;5116837;28;20220;-70
2022/12/09 09:44:55;;;;;;;30.73;19.17;;;3.70;99.90;;;;;;5096610;28;20221;-71
2022/12/09 09:47:29;;;;;;;29.30;19.37;;;3.60;99.90;;;;;;5120155;28;20219;-70
2022/12/09 09:50:01;;;;;;;32.73;22.37;;;3.60;99.90;;;;;;5114954;27;20222;-71
2022/12/09 09:52:30;;;;;;;29.90;19.67;;;3.70;99.90;;;;;;5118976;28;20183;-70
2022/12/09 09:54:57;;;;;;;31.63;19.60;;;3.60;99.90;;;;;;5115010;28;20227;-69
2022/12/09 09:57:31;;;;;;;32.90;19.90;;;3.70;99.90;;;;;;5112988;28;20204;-68
2022/12/09 10:00:06;;;;;;;34.03;20.27;;;3.70;99.90;;;;;;5112697;28;20264;-70
2022/12/09 10:02:47;;;;;;;29.93;19.63;;;3.70;99.90;;;;;;5115155;28;20679;-69
2022/12/09 10:05:22;;;;;;;33.57;20.90;;;3.60;99.90;;;;;;5101556;28;20323;-70
2022/12/09 10:07:53;;;;;;;32.17;20.07;;;3.70;99.90;;;;;;5080868;28;20292;-71
2022/12/09 10:10:35;;;;;;;34.17;19.67;;;3.80;99.90;;;;;;5087163;28;20244;-72
2022/12/09 10:13:16;;;;;;;34.37;21.00;;;3.70;99.90;;;;;;5095251;28;20557;-72
2022/12/09 10:15:51;;;;;;;31.57;20.03;;;3.70;99.90;;;;;;5086090;28;20197;-71
2022/12/09 10:18:22;;;;;;;36.57;20.00;;;3.80;99.90;;;;;;5086555;28;20285;-72
2022/12/09 10:20:51;;;;;;;34.03;21.07;;;3.70;99.90;;;;;;5091186;28;20285;-71
2022/12/09 10:23:19;;;;;;;34.97;21.10;;;3.80;99.90;;;;;;5092896;28;20291;-71
2022/12/09 10:25:48;;;;;;;34.40;20.50;;;3.80;99.90;;;;;;5090311;28;20571;-71
2022/12/09 10:28:21;;;;;;;31.37;20.97;;;3.80;99.90;;;;;;5092676;28;20291;-72
2022/12/09 10:30:48;;;;;;;30.60;20.27;;;3.80;99.90;;;;;;5088574;28;20671;-71
2022/12/09 10:33:17;;;;;;;35.43;21.97;;;3.90;99.90;;;;;;5089660;28;20209;-71
2022/12/09 10:35:45;;;;;;;34.57;20.83;;;4.00;99.90;;;;;;5089197;28;20372;-72
2022/12/09 10:38:15;;;;;;;34.60;21.13;;;4.00;99.90;;;;;;5081061;28;20254;-72
2022/12/09 10:40:53;;;;;;;31.70;21.30;;;4.10;99.90;;;;;;5089895;28;20659;-71
2022/12/09 10:43:34;;;;;;;35.03;22.37;;;4.10;99.90;;;;;;5086051;28;20204;-71
2022/12/09 10:46:02;;;;;;;41.27;22.60;;;4.20;99.90;;;;;;5092639;28;20195;-71
2022/12/09 10:48:32;;;;;;;37.17;22.10;;;4.30;99.90;;;;;;5088801;28;20231;-70
2022/12/09 10:51:02;;;;;;;34.03;21.57;;;4.40;99.90;;;;;;5098482;28;20210;-71
2022/12/09 10:53:31;;;;;;;37.00;22.30;;;4.50;99.90;;;;;;5090386;28;20212;-71
2022/12/09 10:56:00;;;;;;;42.90;21.97;;;4.70;99.90;;;;;;5095122;28;20312;-72
2022/12/09 10:58:29;;;;;;;35.47;21.90;;;4.80;99.90;;;;;;5081829;28;20306;-72
2022/12/09 11:01:01;;;;;;;36.40;22.87;;;4.90;99.90;;;;;;5079212;28;20221;-69
2022/12/09 11:03:32;;;;;;;37.57;23.27;;;5.10;99.90;;;;;;5088489;28;20691;-73
2022/12/09 11:06:03;;;;;;;34.60;21.40;;;5.30;99.90;;;;;;5102261;28;20236;-67
2022/12/09 11:08:32;;;;;;;38.30;22.97;;;5.50;99.90;;;;;;5112516;28;20223;-66
2022/12/09 11:11:00;;;;;;;33.00;22.73;;;5.60;99.90;;;;;;5100789;28;20661;-69
2022/12/09 11:13:38;;;;;;;39.63;22.90;;;5.70;99.90;;;;;;5092468;28;20529;-69
2022/12/09 11:16:06;;;;;;;36.70;21.87;;;6.00;99.90;;;;;;5086116;28;20440;-67
2022/12/09 11:18:42;;;;;;;40.93;23.23;;;6.10;99.90;;;;;;5078869;28;20233;-69
2022/12/09 11:21:29;;;;;;;32.17;21.67;;;6.50;99.90;;;;;;5085861;28;20210;-71
2022/12/09 11:23:58;;;;;;;31.80;20.83;;;7.00;99.90;;;;;;5086495;28;20292;-73
2022/12/09 11:26:31;;;;;;;32.73;21.63;;;7.20;99.90;;;;;;5088302;28;20212;-69
2022/12/09 11:29:04;;;;;;;32.90;21.70;;;7.30;99.90;;;;;;5083982;28;20863;-73
2022/12/09 11:31:37;;;;;;;34.80;22.00;;;7.40;99.90;;;;;;5075175;28;20590;-73
2022/12/09 11:34:06;;;;;;;31.63;21.07;;;7.40;99.90;;;;;;5085489;28;20200;-74
2022/12/09 11:36:35;;;;;;;31.87;20.87;;;7.60;99.90;;;;;;5079959;28;20633;-73
2022/12/09 11:39:19;;;;;;;34.33;22.27;;;7.70;99.90;;;;;;5077110;28;20217;-72
2022/12/09 11:44:33;;;;;;;50.17;24.77;;;7.80;99.90;;;;;;5080917;28;20197;-72
2022/12/09 11:47:05;;;;;;;46.43;23.13;;;7.80;99.90;;;;;;5076822;28;20211;-73
2022/12/09 11:49:35;;;;;;;45.50;21.67;;;7.80;99.90;;;;;;5085364;28;20711;-74
2022/12/09 11:52:06;;;;;;;36.60;21.73;;;7.70;99.90;;;;;;5078949;28;20288;-73
2022/12/09 11:54:40;;;;;;;31.17;20.80;;;7.50;99.90;;;;;;5083115;28;20218;-69
2022/12/09 11:57:21;;;;;;;32.20;21.63;;;7.30;99.90;;;;;;5080208;28;20223;-67
2022/12/09 11:59:54;;;;;;;32.67;21.23;;;7.20;99.90;;;;;;5083846;28;20256;-67
2022/12/09 12:02:30;;;;;;;30.70;21.37;;;7.00;99.90;;;;;;5078497;28;20197;-70
2022/12/09 12:05:01;;;;;;;32.17;20.87;;;6.80;99.90;;;;;;5081405;28;20196;-69
2022/12/09 12:07:38;;;;;;;33.57;21.20;;;6.60;99.90;;;;;;5086345;28;20707;-69
2022/12/09 12:10:16;;;;;;;28.60;19.20;;;6.40;99.90;;;;;;5096155;28;20309;-68
2022/12/09 12:12:51;;;;;;;27.33;19.37;;;6.30;99.90;;;;;;5094427;28;20200;-69
2022/12/09 12:15:23;;;;;;;37.20;20.40;;;6.10;99.90;;;;;;5097537;28;20195;-70
2022/12/09 12:17:55;;;;;;;34.60;20.07;;;6.00;99.90;;;;;;5084718;28;20206;-70
2022/12/09 12:20:26;;;;;;;31.47;19.57;;;6.00;99.90;;;;;;5087383;28;20200;-64
2022/12/09 12:23:09;;;;;;;32.57;19.97;;;6.00;99.90;;;;;;5092076;28;20216;-68
2022/12/09 12:25:49;;;;;;;33.53;19.50;;;6.10;99.90;;;;;;5101396;28;20217;-65
2022/12/09 12:29:01;;;;;;;35.33;20.23;;;6.20;99.90;;;;;;5106128;28;20252;-70
2022/12/09 12:31:49;;;;;;;26.00;18.10;;;6.30;99.90;;;;;;5105633;28;20277;-71
2022/12/09 12:34:26;;;;;;;32.47;19.73;;;6.50;99.90;;;;;;5109111;28;20192;-65
2022/12/09 12:37:01;;;;;;;28.80;19.23;;;6.70;99.90;;;;;;5109930;28;20176;-68
2022/12/09 12:39:41;;;;;;;28.33;19.90;;;6.60;99.90;;;;;;5109644;28;20233;-69
2022/12/09 12:42:23;;;;;;;31.53;18.97;;;6.60;99.90;;;;;;5111719;28;20212;-69
2022/12/09 12:47:47;;;;;;;28.03;18.73;;;6.30;99.90;;;;;;5123484;27;20222;-69
2022/12/09 12:50:38;;;;;;;31.67;18.70;;;6.00;99.90;;;;;;5126917;27;20224;-68
2022/12/09 12:53:12;;;;;;;27.63;18.60;;;5.90;99.90;;;;;;5108099;28;20196;-68